Time;durP1;ratioP1;P1;durP2;ratioP2;P2;SDS_P1;SDS_P2;PMS_P1;PMS_P2;Temp;Humidity;BMP_temperature;BMP_pressure;BME280_temperature;BME280_humidity;BME280_pressure;Samples;Min_cycle;Max_cycle;Signal;HPM_P1;HPM_P2
2020/12/03 00:01:11;;;;;;;4.10;2.30;;;;;;;-5.92;87.01;98176.19;1684662;85;21330;-74
2020/12/03 00:03:53;;;;;;;5.53;4.25;;;;;;;-5.91;86.96;98175.73;1684858;85;21153;-74
2020/12/03 00:06:29;;;;;;;4.22;2.65;;;;;;;-6.07;87.20;98172.73;1680097;85;21227;-73
2020/12/03 00:09:11;;;;;;;11.48;5.30;;;;;;;-6.05;87.54;98172.71;1684208;85;21192;-73
2020/12/03 00:11:44;;;;;;;9.03;6.40;;;;;;;-6.19;88.01;98174.75;1685328;85;21160;-74
2020/12/03 00:14:12;;;;;;;5.78;3.92;;;;;;;-6.19;87.93;98176.84;1684899;85;21200;-74
2020/12/03 00:16:41;;;;;;;5.33;4.65;;;;;;;-6.25;88.17;98169.38;1684381;85;21185;-74
2020/12/03 00:19:13;;;;;;;3.80;2.95;;;;;;;-6.28;88.60;98182.93;1684694;85;21212;-74
2020/12/03 00:21:54;;;;;;;4.10;3.80;;;;;;;-6.19;88.24;98176.01;1684603;85;21175;-74
2020/12/03 00:24:30;;;;;;;3.90;3.47;;;;;;;-6.08;87.79;98181.21;1684350;85;21183;-74
2020/12/03 00:29:51;;;;;;;8.23;3.90;;;;;;;-6.02;87.17;98175.16;1658436;86;21252;-73
2020/12/03 00:32:20;;;;;;;6.72;4.22;;;;;;;-6.05;87.21;98177.77;1657812;86;21129;-73
2020/12/03 00:34:47;;;;;;;9.65;5.20;;;;;;;-6.04;87.26;98184.06;1694076;85;21148;-72
2020/12/03 00:37:16;;;;;;;5.60;5.10;;;;;;;-5.99;86.89;98185.23;1693824;85;21172;-72
2020/12/03 00:39:44;;;;;;;3.98;3.15;;;;;;;-5.94;86.57;98184.23;1658162;86;21653;-73
2020/12/03 00:42:12;;;;;;;4.60;3.45;;;;;;;-5.89;86.47;98187.92;1694121;84;21192;-73
2020/12/03 00:44:40;;;;;;;5.78;5.15;;;;;;;-5.81;86.31;98192.33;1658108;86;21161;-73
2020/12/03 00:47:08;;;;;;;6.50;5.50;;;;;;;-5.75;86.05;98195.53;1693948;85;21580;-73
2020/12/03 00:49:36;;;;;;;4.83;3.95;;;;;;;-5.70;85.43;98189.09;1657639;86;21657;-71
2020/12/03 00:52:04;;;;;;;3.12;2.77;;;;;;;-5.76;84.66;98192.59;1693597;84;21144;-72
2020/12/03 00:54:32;;;;;;;14.00;5.28;;;;;;;-5.78;84.74;98196.88;1657756;86;21590;-73
2020/12/03 00:57:01;;;;;;;9.05;4.12;;;;;;;-5.75;85.00;98195.95;1693930;85;21167;-73
2020/12/03 00:59:29;;;;;;;5.53;4.40;;;;;;;-5.85;85.13;98192.84;1657582;86;21192;-72
2020/12/03 01:01:58;;;;;;;11.43;5.28;;;;;;;-5.85;85.35;98194.53;1693794;85;21163;-73
2020/12/03 01:04:27;;;;;;;6.33;4.05;;;;;;;-5.85;85.32;98198.33;1694156;85;21582;-75
2020/12/03 01:06:56;;;;;;;8.23;4.85;;;;;;;-5.83;85.26;98199.11;1657763;86;21212;-75
2020/12/03 01:09:23;;;;;;;15.03;5.17;;;;;;;-5.84;84.73;98192.41;1693874;85;21203;-75
2020/12/03 01:11:52;;;;;;;9.48;3.70;;;;;;;-5.89;84.72;98191.28;1657872;86;21157;-75
2020/12/03 01:14:21;;;;;;;3.17;2.42;;;;;;;-5.91;84.87;98193.00;1693904;85;21179;-75
2020/12/03 01:16:48;;;;;;;4.72;4.35;;;;;;;-5.95;84.96;98184.29;1658119;86;21201;-74
2020/12/03 01:19:16;;;;;;;5.58;3.98;;;;;;;-6.02;85.33;98183.58;1693800;85;21214;-76
2020/12/03 01:21:44;;;;;;;8.88;5.53;;;;;;;-6.25;86.66;98175.27;1657624;86;21565;-75
2020/12/03 01:24:12;;;;;;;3.02;2.42;;;;;;;-6.27;87.10;98174.49;1693687;84;21186;-75
2020/12/03 01:26:40;;;;;;;6.97;3.08;;;;;;;-6.19;86.68;98164.63;1657751;86;21217;-75
2020/12/03 01:29:07;;;;;;;4.45;4.08;;;;;;;-6.21;86.93;98165.92;1678988;85;21176;-75
2020/12/03 01:31:35;;;;;;;7.28;4.78;;;;;;;-6.21;86.84;98162.13;1668981;86;21148;-74
2020/12/03 01:34:03;;;;;;;2.80;2.52;;;;;;;-6.18;86.19;98172.16;1668855;86;21160;-75
2020/12/03 01:36:31;;;;;;;7.55;3.62;;;;;;;-6.17;85.97;98169.20;1669093;86;21215;-74
2020/12/03 01:38:59;;;;;;;4.12;2.85;;;;;;;-6.11;86.03;98163.59;1668894;86;21188;-75
2020/12/03 01:41:27;;;;;;;3.75;3.35;;;;;;;-6.10;85.90;98160.17;1668931;86;21632;-74
2020/12/03 01:43:55;;;;;;;4.55;2.45;;;;;;;-6.13;86.19;98161.95;1669004;86;21167;-75
2020/12/03 01:46:23;;;;;;;4.70;2.40;;;;;;;-6.13;86.02;98160.25;1669082;86;21232;-75
2020/12/03 01:49:16;;;;;;;3.95;3.35;;;;;;;-6.12;85.93;98161.92;1669692;86;21757;-75
2020/12/03 01:51:53;;;;;;;7.08;3.67;;;;;;;-6.06;85.92;98157.97;1669713;86;21247;-75
2020/12/03 01:54:23;;;;;;;5.90;4.15;;;;;;;-5.98;85.70;98160.31;1669390;86;21610;-75
2020/12/03 02:00:13;;;;;;;2.45;1.95;;;;;;;-5.92;85.08;98146.28;1672770;86;21568;-74
2020/12/03 02:02:48;;;;;;;6.05;2.85;;;;;;;-5.95;84.07;98148.42;1614460;87;21255;-74
2020/12/03 02:08:05;;;;;;;12.28;4.53;;;;;;;-6.00;83.71;98143.94;1635153;87;21616;-74
2020/12/03 02:10:33;;;;;;;5.17;4.78;;;;;;;-6.03;83.81;98139.39;1608618;89;21204;-75
2020/12/03 02:13:01;;;;;;;3.67;3.15;;;;;;;-6.07;84.04;98139.07;1636347;87;21217;-74
2020/12/03 02:15:29;;;;;;;6.65;5.50;;;;;;;-6.07;83.84;98136.08;1636773;88;21244;-74
2020/12/03 02:17:56;;;;;;;4.22;3.85;;;;;;;-6.05;83.98;98139.41;1615805;89;21186;-74
2020/12/03 02:20:24;;;;;;;7.17;5.20;;;;;;;-6.01;83.88;98139.74;1635821;87;21177;-75
2020/12/03 02:22:52;;;;;;;5.60;4.00;;;;;;;-5.98;83.88;98139.66;1635840;88;21193;-75
2020/12/03 02:25:19;;;;;;;4.70;3.65;;;;;;;-6.01;83.68;98142.27;1635903;87;21566;-73
2020/12/03 02:27:47;;;;;;;3.77;2.10;;;;;;;-6.08;83.74;98139.92;1615948;89;21199;-74
2020/12/03 02:30:15;;;;;;;3.15;2.80;;;;;;;-6.15;83.71;98126.62;1670897;86;21193;-75
2020/12/03 02:32:43;;;;;;;3.45;3.20;;;;;;;-6.17;83.71;98117.39;1635705;88;21214;-75
2020/12/03 02:35:13;;;;;;;5.83;2.70;;;;;;;-6.18;83.72;98121.61;1635822;88;21585;-70
2020/12/03 02:37:41;;;;;;;5.58;2.92;;;;;;;-6.18;83.67;98110.66;1635699;88;21189;-69
2020/12/03 02:40:10;;;;;;;6.30;4.33;;;;;;;-6.19;84.03;98114.08;1635961;87;21192;-70
2020/12/03 02:42:38;;;;;;;9.35;6.08;;;;;;;-6.20;84.12;98109.45;1615566;89;21336;-70
2020/12/03 02:45:07;;;;;;;6.10;4.12;;;;;;;-6.18;84.39;98108.97;1670505;86;21157;-70
2020/12/03 02:47:35;;;;;;;7.97;2.95;;;;;;;-6.14;84.83;98096.66;1635917;87;21594;-71
2020/12/03 02:50:06;;;;;;;6.50;5.10;;;;;;;-6.11;85.03;98095.34;1636129;88;21253;-71
2020/12/03 02:52:34;;;;;;;5.97;3.83;;;;;;;-6.11;85.30;98098.30;1636266;88;21210;-71
2020/12/03 02:55:04;;;;;;;6.95;3.83;;;;;;;-6.21;85.88;98090.53;1636178;88;21197;-76
2020/12/03 02:57:37;;;;;;;6.25;2.85;;;;;;;-6.22;86.12;98089.70;1636381;87;21224;-75
2020/12/03 03:00:05;;;;;;;12.03;4.08;;;;;;;-6.26;86.31;98094.00;1635996;87;21196;-75
2020/12/03 03:02:33;;;;;;;7.17;3.95;;;;;;;-6.34;86.98;98089.55;1635882;87;21228;-75
2020/12/03 03:05:01;;;;;;;5.60;2.60;;;;;;;-6.30;86.44;98087.78;1635779;88;21626;-69
2020/12/03 03:07:29;;;;;;;5.47;3.27;;;;;;;-6.27;85.98;98082.25;1632393;87;21171;-70
2020/12/03 03:09:57;;;;;;;3.75;2.77;;;;;;;-6.25;85.76;98076.70;1653347;87;21212;-70
2020/12/03 03:12:24;;;;;;;4.70;2.80;;;;;;;-6.22;85.77;98073.72;1653239;86;21255;-70
2020/12/03 03:14:53;;;;;;;5.03;3.67;;;;;;;-6.22;85.84;98082.57;1653284;87;21196;-70
2020/12/03 03:17:21;;;;;;;2.62;2.42;;;;;;;-6.21;85.80;98085.47;1653318;86;21188;-70
2020/12/03 03:19:49;;;;;;;4.62;4.08;;;;;;;-6.27;86.29;98087.30;1653202;87;21153;-70
2020/12/03 03:22:17;;;;;;;3.37;3.08;;;;;;;-6.33;86.51;98086.59;1653402;86;21752;-70
2020/12/03 03:24:45;;;;;;;7.80;3.10;;;;;;;-6.27;86.00;98090.26;1653172;87;21199;-70
2020/12/03 03:27:12;;;;;;;4.10;2.95;;;;;;;-6.22;85.73;98083.84;1653761;86;21187;-70
2020/12/03 03:29:40;;;;;;;2.80;2.47;;;;;;;-6.22;85.48;98085.09;1653816;86;21624;-70
2020/12/03 03:32:08;;;;;;;2.98;2.55;;;;;;;-6.23;85.44;98098.16;1653755;87;21823;-70
2020/12/03 03:34:36;;;;;;;4.33;2.65;;;;;;;-6.24;85.23;98104.08;1653274;87;21199;-70
2020/12/03 03:37:04;;;;;;;4.37;3.30;;;;;;;-6.29;84.95;98097.87;1653732;87;21199;-70
2020/12/03 03:39:32;;;;;;;6.28;5.00;;;;;;;-6.32;85.48;98085.31;1653815;86;21621;-69
2020/12/03 03:42:00;;;;;;;6.05;5.47;;;;;;;-6.28;85.39;98089.42;1653939;86;21164;-71
2020/12/03 03:44:28;;;;;;;6.37;2.80;;;;;;;-6.25;85.30;98088.08;1653888;86;21580;-69
2020/12/03 03:46:55;;;;;;;11.18;6.12;;;;;;;-6.22;85.35;98088.89;1653754;87;21157;-70
2020/12/03 03:49:23;;;;;;;3.98;3.67;;;;;;;-6.19;85.31;98078.70;1653427;87;21633;-70
2020/12/03 03:51:52;;;;;;;7.15;5.50;;;;;;;-6.17;85.20;98076.52;1653141;86;21720;-70
2020/12/03 03:54:20;;;;;;;4.45;4.05;;;;;;;-6.17;85.11;98071.89;1653260;86;21766;-71
2020/12/03 03:56:48;;;;;;;5.70;4.72;;;;;;;-6.19;85.17;98075.74;1653204;86;21191;-69
2020/12/03 03:59:16;;;;;;;4.80;4.40;;;;;;;-6.19;85.37;98081.23;1653329;87;21191;-70
2020/12/03 04:01:43;;;;;;;4.55;3.87;;;;;;;-6.20;85.27;98063.13;1653409;87;21192;-70
2020/12/03 04:04:11;;;;;;;6.65;3.60;;;;;;;-6.27;85.60;98064.56;1653849;87;21253;-70
2020/12/03 04:06:39;;;;;;;11.85;3.10;;;;;;;-6.26;84.96;98057.34;1653224;86;21620;-70
2020/12/03 04:09:07;;;;;;;5.80;4.33;;;;;;;-6.21;84.91;98064.83;1653189;86;21211;-70
2020/12/03 04:11:35;;;;;;;3.58;3.05;;;;;;;-6.23;84.42;98072.89;1653223;87;21188;-69
2020/12/03 04:14:03;;;;;;;5.28;4.78;;;;;;;-6.19;84.71;98068.59;1653140;86;21669;-70
2020/12/03 04:16:31;;;;;;;6.92;5.22;;;;;;;-6.13;84.80;98076.00;1653135;87;21168;-69
2020/12/03 04:18:58;;;;;;;7.60;3.98;;;;;;;-6.06;84.69;98069.49;1653174;86;21192;-70
2020/12/03 04:21:26;;;;;;;4.62;3.62;;;;;;;-6.09;83.92;98076.33;1653440;86;21640;-70
2020/12/03 04:23:54;;;;;;;7.20;5.92;;;;;;;-6.10;84.11;98067.91;1653629;87;21235;-70
2020/12/03 04:26:22;;;;;;;6.33;2.87;;;;;;;-6.03;84.26;98066.88;1653289;86;21645;-70
2020/12/03 04:28:50;;;;;;;4.65;4.25;;;;;;;-6.00;84.08;98060.94;1653216;87;21188;-70
2020/12/03 04:31:17;;;;;;;4.90;3.50;;;;;;;-5.99;84.25;98055.02;1653351;87;21208;-71
2020/12/03 04:33:46;;;;;;;6.65;5.08;;;;;;;-5.98;84.08;98049.06;1653101;86;21326;-70
2020/12/03 04:36:14;;;;;;;8.88;3.50;;;;;;;-5.98;84.08;98041.05;1653230;87;21243;-70
2020/12/03 04:38:41;;;;;;;8.30;4.60;;;;;;;-5.92;84.08;98048.92;1653086;86;21616;-71
2020/12/03 04:41:10;;;;;;;5.95;5.42;;;;;;;-5.95;83.74;98048.55;1653122;87;21628;-70
2020/12/03 04:47:02;;;;;;;8.60;5.40;;;;;;;-5.92;83.90;98042.61;1653276;86;21187;-75
2020/12/03 04:50:09;;;;;;;18.62;5.58;;;;;;;-5.96;84.24;98030.91;1627004;88;21253;-75
2020/12/03 04:53:05;;;;;;;7.30;4.22;;;;;;;-5.93;84.10;98037.14;1697380;83;21185;-75
2020/12/03 04:56:03;;;;;;;5.22;3.80;;;;;;;-5.90;83.95;98035.80;1696783;83;21303;-75
2020/12/03 04:58:54;;;;;;;;;;;;;;;-5.90;83.41;98030.30;1647266;86;21252;-75
2020/12/03 05:01:45;;;;;;;3.37;3.12;;;;;;;-5.88;83.31;98037.44;1647185;87;20137;-75
2020/12/03 05:07:09;;;;;;;5.85;4.90;;;;;;;-5.83;83.21;98042.30;1617688;88;21610;-75
2020/12/03 05:10:01;;;;;;;11.93;4.60;;;;;;;-5.79;83.14;98040.09;1623721;87;21232;-74
2020/12/03 05:12:39;;;;;;;6.25;5.55;;;;;;;-5.80;83.10;98027.87;1649359;86;21201;-75
2020/12/03 05:15:31;;;;;;;7.25;4.37;;;;;;;-5.90;83.29;98025.67;1649442;86;21193;-75
2020/12/03 05:18:25;;;;;;;7.12;4.03;;;;;;;-5.88;83.34;98025.22;1649582;87;21162;-71
2020/12/03 05:21:02;;;;;;;7.35;4.55;;;;;;;-5.89;83.22;98025.65;1649347;87;21229;-71
2020/12/03 05:23:35;;;;;;;9.13;4.72;;;;;;;-5.87;83.18;98030.22;1649684;87;21241;-70
2020/12/03 05:26:20;;;;;;;8.10;5.33;;;;;;;-5.86;82.90;98041.16;1649376;86;21220;-73
2020/12/03 05:29:03;;;;;;;4.78;3.50;;;;;;;-5.90;83.06;98044.64;1649559;86;21229;-73
2020/12/03 05:31:42;;;;;;;5.45;4.53;;;;;;;-5.89;83.54;98042.52;1649172;86;21195;-75
2020/12/03 05:34:20;;;;;;;10.68;3.98;;;;;;;-5.86;83.54;98051.28;1648652;87;21218;-74
2020/12/03 05:37:03;;;;;;;5.92;5.33;;;;;;;-5.84;83.87;98049.09;1648572;87;21195;-74
2020/12/03 05:39:42;;;;;;;6.20;4.60;;;;;;;-5.79;84.01;98044.72;1648941;87;21171;-75
2020/12/03 05:42:15;;;;;;;13.53;6.72;;;;;;;-5.69;84.11;98041.52;1648818;87;21227;-73
2020/12/03 05:44:51;;;;;;;5.05;4.58;;;;;;;-5.61;84.16;98030.76;1648715;87;21206;-76
2020/12/03 05:47:36;;;;;;;7.00;5.67;;;;;;;-5.55;84.04;98030.58;1648300;87;21159;-70
2020/12/03 05:50:33;;;;;;;7.80;6.72;;;;;;;-5.55;83.74;98028.05;1647952;87;21151;-70
2020/12/03 05:53:20;;;;;;;7.33;4.42;;;;;;;-5.63;83.72;98018.57;1677116;85;21607;-70
2020/12/03 05:56:17;;;;;;;3.75;2.62;;;;;;;-5.65;84.29;98009.38;1817161;78;22441;-69
2020/12/03 05:58:45;;;;;;;5.03;3.33;;;;;;;-5.67;84.17;98014.47;1788013;80;21207;-70
2020/12/03 06:01:23;;;;;;;4.47;4.05;;;;;;;-5.75;83.52;98023.53;1787957;80;21179;-76
2020/12/03 06:04:35;;;;;;;8.68;4.58;;;;;;;-5.73;84.43;98022.67;1788263;80;21162;-74
2020/12/03 06:07:38;;;;;;;4.35;4.00;;;;;;;-5.68;84.43;98024.19;1739428;82;21167;-76
2020/12/03 06:10:14;;;;;;;4.47;4.03;;;;;;;-5.62;84.54;98013.91;1678632;85;21643;-75
2020/12/03 06:13:34;;;;;;;5.87;4.08;;;;;;;-5.52;84.60;98020.80;1678762;85;21205;-74
2020/12/03 06:16:15;;;;;;;5.10;3.25;;;;;;;-5.51;84.19;98023.30;1676363;85;21187;-76
2020/12/03 06:19:02;;;;;;;5.45;3.95;;;;;;;-5.40;84.73;98011.16;1678307;85;21620;-75
2020/12/03 06:22:01;;;;;;;9.88;6.40;;;;;;;-5.29;84.56;98008.31;1726467;83;21203;-74
2020/12/03 06:25:15;;;;;;;6.67;5.03;;;;;;;-5.02;90.26;98018.88;1709982;83;21179;-76
2020/12/03 06:27:54;;;;;;;2.60;2.27;;;;;;;-5.02;85.84;98016.81;1757565;81;21175;-75
2020/12/03 06:30:32;;;;;;;6.65;4.15;;;;;;;-4.97;85.53;98005.66;1756884;81;21199;-75
2020/12/03 06:33:39;;;;;;;8.30;4.15;;;;;;;-4.93;84.27;98011.02;1758075;81;21838;-76
2020/12/03 06:36:40;;;;;;;4.12;3.45;;;;;;;-4.85;86.37;98016.67;1758273;81;21219;-74
2020/12/03 06:39:58;;;;;;;4.10;3.72;;;;;;;-4.77;84.85;98017.70;1758203;81;21147;-76
2020/12/03 06:42:51;;;;;;;6.83;6.10;;;;;;;-4.71;83.91;98019.23;1717797;82;21167;-74
2020/12/03 06:45:53;;;;;;;5.40;3.70;;;;;;;-4.58;84.38;98007.81;1712729;84;21187;-74
2020/12/03 06:48:46;;;;;;;7.80;5.10;;;;;;;-4.50;84.00;98015.56;1712314;84;21215;-74
2020/12/03 06:51:55;;;;;;;7.20;4.55;;;;;;;-4.37;83.84;98026.97;1711687;83;21741;-74
2020/12/03 06:54:49;;;;;;;12.00;5.53;;;;;;;-4.31;83.54;98022.95;1696534;84;21203;-74
2020/12/03 06:58:05;;;;;;;6.25;5.60;;;;;;;-4.33;83.05;98010.78;1763880;81;21775;-73
2020/12/03 07:01:17;;;;;;;7.00;4.17;;;;;;;-4.27;83.81;98005.94;1711725;84;21699;-74
2020/12/03 07:04:00;;;;;;;13.30;6.17;;;;;;;-4.16;83.67;97987.38;1712160;84;21289;-75
2020/12/03 07:07:17;;;;;;;6.55;3.98;;;;;;;-4.06;83.98;97998.05;1711729;84;21624;-75
2020/12/03 07:10:23;;;;;;;3.17;2.03;;;;;;;-3.94;83.88;97984.95;1712219;84;21178;-75
2020/12/03 07:13:16;;;;;;;5.95;3.70;;;;;;;-3.83;84.24;97975.25;1614114;88;22104;-75
2020/12/03 07:16:33;;;;;;;4.83;4.20;;;;;;;-3.64;84.04;97990.20;1625949;88;21226;-74
2020/12/03 07:19:37;;;;;;;5.00;4.20;;;;;;;-3.51;83.93;97996.50;1677839;85;21187;-75
2020/12/03 07:22:37;;;;;;;6.58;4.20;;;;;;;-3.43;84.42;97998.33;1651063;87;21156;-76
2020/12/03 07:25:06;;;;;;;8.35;3.17;;;;;;;-3.33;84.90;97990.34;1727759;83;21127;-75
2020/12/03 07:28:11;;;;;;;10.68;5.50;;;;;;;-3.13;84.47;97981.55;1720730;81;21568;-74
2020/12/03 07:30:57;;;;;;;7.92;5.20;;;;;;;-3.00;84.18;97986.55;1697629;84;21599;-74
2020/12/03 07:36:54;;;;;;;6.17;4.20;;;;;;;-2.69;84.02;97974.30;1662585;85;21623;-74
2020/12/03 07:39:35;;;;;;;3.85;3.33;;;;;;;-2.69;84.02;97974.30;1711706;84;21198;-75
2020/12/03 07:42:20;;;;;;;7.45;6.15;;;;;;;-2.46;84.35;97978.02;1699095;84;21189;-75
2020/12/03 07:44:53;;;;;;;4.53;3.50;;;;;;;-2.44;84.05;97968.59;1650398;86;21134;-73
2020/12/03 07:47:36;;;;;;;8.38;6.75;;;;;;;-2.35;84.13;97967.83;1679498;85;21171;-73
2020/12/03 07:50:26;;;;;;;4.22;3.95;;;;;;;-2.32;84.31;97962.17;1679484;85;21167;-72
2020/12/03 07:53:22;;;;;;;5.10;2.92;;;;;;;-2.12;83.87;97958.80;1679397;85;21163;-74
2020/12/03 07:55:52;;;;;;;4.45;3.27;;;;;;;-2.10;83.73;97962.11;1672806;85;21187;-74
2020/12/03 08:01:37;;;;;;;9.68;5.95;;;;;;;-1.86;83.94;97950.03;1765827;79;22934;-74
2020/12/03 08:04:22;;;;;;;11.53;7.33;;;;;;;-1.69;83.09;97945.86;1728058;81;21293;-74
2020/12/03 08:07:14;;;;;;;6.30;4.60;;;;;;;-1.47;82.89;97940.18;1723746;83;21207;-74
2020/12/03 08:09:45;;;;;;;9.43;5.70;;;;;;;-1.47;82.89;97940.18;1714003;82;21160;-76
2020/12/03 08:12:24;;;;;;;15.05;7.60;;;;;;;-1.13;81.99;97931.00;1723874;83;21172;-76
2020/12/03 08:14:57;;;;;;;24.47;9.65;;;;;;;-1.13;81.99;97931.00;1723857;83;21406;-73
2020/12/03 08:17:31;;;;;;;14.95;5.45;;;;;;;-0.79;81.64;97939.15;1723946;83;21322;-75
2020/12/03 08:20:13;;;;;;;10.82;5.35;;;;;;;-0.50;80.68;97946.20;1723901;83;21164;-73
2020/12/03 08:22:49;;;;;;;8.75;4.42;;;;;;;-0.08;80.08;97944.54;1723674;83;21152;-72
2020/12/03 08:25:29;;;;;;;15.30;6.05;;;;;;;0.25;78.07;97941.52;1723885;83;21738;-72
2020/12/03 08:28:06;;;;;;;8.58;5.60;;;;;;;0.55;77.33;97936.52;1723537;83;21589;-72
2020/12/03 08:30:47;;;;;;;9.48;5.37;;;;;;;0.74;76.15;97928.23;1723553;83;21293;-72
2020/12/03 08:33:17;;;;;;;16.35;6.15;;;;;;;0.97;75.03;97921.89;1723055;83;21613;-72
2020/12/03 08:35:54;;;;;;;9.65;6.50;;;;;;;1.14;73.17;97924.32;1723360;83;21171;-72
2020/12/03 08:38:31;;;;;;;12.35;6.37;;;;;;;1.24;73.13;97915.69;1723584;83;21157;-71
2020/12/03 08:41:06;;;;;;;12.95;6.25;;;;;;;1.83;72.98;97909.67;1723852;83;21659;-72
2020/12/03 08:43:42;;;;;;;19.77;6.58;;;;;;;1.75;71.47;97905.00;1724017;83;21226;-72
2020/12/03 08:48:57;;;;;;;9.78;6.60;;;;;;;2.41;69.85;97899.80;1774034;79;23072;-73
2020/12/03 08:51:25;;;;;;;15.30;6.25;;;;;;;2.55;69.07;97892.91;1724679;82;21282;-74
2020/12/03 08:53:54;;;;;;;15.38;8.63;;;;;;;2.82;66.98;97887.34;1724100;83;21294;-74
2020/12/03 08:56:35;;;;;;;14.25;7.37;;;;;;;3.15;65.85;97885.64;1724226;83;21159;-72
2020/12/03 08:59:11;;;;;;;8.65;5.15;;;;;;;3.28;65.22;97873.67;1731499;80;21104;-73
2020/12/03 09:01:46;;;;;;;10.82;5.03;;;;;;;3.33;64.88;97866.95;1767809;80;21184;-72
2020/12/03 09:04:19;;;;;;;12.80;6.45;;;;;;;3.33;64.90;97866.50;1712306;82;21136;-73
2020/12/03 09:06:52;;;;;;;12.93;7.17;;;;;;;3.31;64.21;97865.77;1702385;82;21175;-72
2020/12/03 09:09:24;;;;;;;8.98;5.60;;;;;;;3.59;64.17;97861.38;1691856;84;21556;-72
2020/12/03 09:11:55;;;;;;;12.07;6.53;;;;;;;4.49;63.13;97853.46;1692414;84;21179;-72
2020/12/03 09:14:26;;;;;;;19.73;7.10;;;;;;;4.83;60.74;97847.56;1695809;82;21171;-73
2020/12/03 09:16:59;;;;;;;12.98;8.13;;;;;;;4.60;60.41;97836.80;1695407;84;21200;-73
2020/12/03 09:19:36;;;;;;;13.35;6.80;;;;;;;5.04;59.57;97821.58;1794795;79;23021;-72
2020/12/03 09:22:06;;;;;;;10.98;5.75;;;;;;;5.00;59.47;97824.02;1795460;79;21650;-72
2020/12/03 09:24:36;;;;;;;9.68;6.30;;;;;;;5.11;58.70;97820.20;1795095;79;21165;-72
2020/12/03 09:27:05;;;;;;;10.80;8.03;;;;;;;4.83;58.99;97829.55;1794985;79;21561;-73
2020/12/03 09:29:33;;;;;;;10.48;6.03;;;;;;;4.44;60.46;97831.09;1812937;78;21190;-72
2020/12/03 09:32:07;;;;;;;14.90;7.65;;;;;;;3.76;62.29;97816.14;1809923;78;21139;-72
2020/12/03 09:34:37;;;;;;;13.38;7.12;;;;;;;3.71;62.53;97816.91;1800435;79;21260;-72
2020/12/03 09:37:06;;;;;;;8.80;6.17;;;;;;;4.11;62.20;97816.30;1806369;79;21159;-72
2020/12/03 09:39:35;;;;;;;13.53;7.03;;;;;;;4.14;61.51;97813.05;1806524;79;21604;-73
2020/12/03 09:42:05;;;;;;;11.95;5.95;;;;;;;3.92;62.48;97809.04;1805616;78;21164;-71
2020/12/03 09:44:36;;;;;;;9.83;5.55;;;;;;;4.46;61.67;97809.97;1773418;78;21142;-72
2020/12/03 09:47:13;;;;;;;10.50;5.75;;;;;;;4.17;60.84;97808.14;1822563;78;21623;-73
2020/12/03 09:49:44;;;;;;;9.23;6.20;;;;;;;3.81;62.45;97803.82;1816179;78;21226;-73
2020/12/03 09:52:13;;;;;;;14.20;5.75;;;;;;;4.15;61.98;97813.41;1795217;80;21142;-72
2020/12/03 09:54:43;;;;;;;11.83;6.80;;;;;;;4.13;61.96;97801.12;1795355;79;21590;-76
2020/12/03 09:57:12;;;;;;;12.75;6.37;;;;;;;4.02;61.42;97797.19;1795542;80;21559;-73
2020/12/03 09:59:42;;;;;;;11.15;5.70;;;;;;;4.19;61.65;97781.44;1795948;80;21141;-73
2020/12/03 10:02:17;;;;;;;9.43;5.85;;;;;;;4.16;62.76;97792.39;1759648;81;21177;-72
2020/12/03 10:05:24;;;;;;;9.35;4.75;;;;;;;4.86;60.02;97788.66;1739460;82;21623;-72
2020/12/03 10:08:31;;;;;;;8.90;5.43;;;;;;;5.09;60.31;97793.77;1670834;86;21255;-73
2020/12/03 10:11:22;;;;;;;11.93;6.67;;;;;;;4.86;57.55;97791.23;1740329;81;21260;-74
2020/12/03 10:14:23;;;;;;;9.05;5.33;;;;;;;4.60;58.36;97788.77;1739560;82;21225;-73
2020/12/03 10:17:03;;;;;;;9.50;5.00;;;;;;;5.01;57.62;97783.21;1739131;82;21724;-74
2020/12/03 10:19:38;;;;;;;8.75;5.62;;;;;;;5.14;57.36;97785.67;1720688;82;21154;-74
2020/12/03 10:22:15;;;;;;;13.48;5.00;;;;;;;5.50;57.72;97775.69;1717593;83;21162;-74
2020/12/03 10:24:57;;;;;;;;;;;;;;;6.25;55.46;97764.31;1712920;83;21903;-74
2020/12/03 10:27:51;;;;;;;9.50;5.37;;;;;;;6.42;54.00;97763.32;1717711;83;20136;-73
2020/12/03 10:30:24;;;;;;;10.13;6.10;;;;;;;6.53;53.24;97761.20;1704160;84;21198;-73
2020/12/03 10:32:53;;;;;;;15.32;8.18;;;;;;;6.53;52.39;97762.49;1701552;84;21147;-73
2020/12/03 10:35:22;;;;;;;40.33;17.07;;;;;;;6.92;51.32;97746.84;1704129;83;21166;-72
2020/12/03 10:37:54;;;;;;;11.15;6.42;;;;;;;7.24;49.90;97745.50;1716364;83;21218;-72
2020/12/03 10:40:23;;;;;;;11.73;6.28;;;;;;;6.40;51.11;97743.30;1716354;83;21150;-71
2020/12/03 10:43:05;;;;;;;9.63;6.25;;;;;;;6.94;50.06;97747.06;1704055;83;21548;-71
2020/12/03 10:45:38;;;;;;;10.38;6.15;;;;;;;7.52;48.94;97747.39;1716537;83;21595;-72
2020/12/03 10:48:19;;;;;;;9.33;5.78;;;;;;;7.94;48.29;97740.34;1716155;83;21288;-72
2020/12/03 10:51:27;;;;;;;10.90;6.55;;;;;;;7.95;46.86;97747.98;1714810;83;21336;-72
2020/12/03 10:53:56;;;;;;;10.30;5.47;;;;;;;8.28;46.26;97738.27;1746305;81;21190;-75
2020/12/03 10:56:27;;;;;;;9.00;4.78;;;;;;;7.75;46.08;97737.69;1777382;81;21147;-73
2020/12/03 10:59:18;;;;;;;9.83;4.97;;;;;;;7.78;46.44;97725.83;1775876;81;21186;-73
2020/12/03 11:01:42;;;;;;;11.18;6.33;;;;;;;8.04;47.60;97729.09;1770958;80;21135;-73
2020/12/03 11:04:12;;;;;;;12.18;5.83;;;;;;;7.84;47.28;97727.40;1746304;81;21176;-74
2020/12/03 11:06:40;;;;;;;11.10;6.10;;;;;;;7.45;47.77;97718.68;1773458;81;21597;-74
2020/12/03 11:12:27;;;;;;;12.33;6.30;;;;;;;7.33;46.68;97709.38;1822844;77;23016;-73
2020/12/03 11:15:02;;;;;;;9.85;5.37;;;;;;;7.11;47.79;97704.37;1823714;79;21172;-74
2020/12/03 11:18:04;;;;;;;14.00;5.10;;;;;;;7.22;47.80;97694.43;1827150;78;21124;-72
2020/12/03 11:20:37;;;;;;;11.08;5.35;;;;;;;6.71;49.10;97696.49;1743650;80;21228;-72
2020/12/03 11:23:19;;;;;;;16.55;6.60;;;;;;;6.04;51.03;97699.31;1775236;80;21141;-72
2020/12/03 11:25:51;;;;;;;12.43;5.58;;;;;;;6.43;50.29;97691.92;1774306;80;21188;-72
2020/12/03 11:28:34;;;;;;;14.23;6.12;;;;;;;5.98;51.24;97683.06;1775370;80;21163;-72
2020/12/03 11:31:08;;;;;;;11.88;6.17;;;;;;;6.23;50.52;97676.75;1775567;79;21175;-72
2020/12/03 11:33:41;;;;;;;11.57;6.62;;;;;;;6.05;51.89;97679.05;1775403;80;21187;-72
2020/12/03 11:36:15;;;;;;;14.70;5.92;;;;;;;6.00;52.15;97677.77;1769522;80;21631;-71
2020/12/03 11:38:53;;;;;;;13.07;5.37;;;;;;;6.43;51.40;97670.82;1769393;81;21158;-73
2020/12/03 11:47:29;;;;;;;12.07;6.80;;;;;;;6.16;51.56;97664.83;1827428;78;21152;-71
2020/12/03 11:49:28;;;;;;;9.13;5.30;;;;;;;6.18;52.08;97664.73;1823571;78;21203;-70
2020/12/03 11:52:16;;;;;;;9.25;5.72;;;;;;;5.85;52.65;97671.21;1826092;78;21548;-70
2020/12/03 11:54:47;;;;;;;14.95;6.17;;;;;;;5.29;54.25;97663.56;1818174;78;21578;-71
2020/12/03 11:57:16;;;;;;;12.40;6.65;;;;;;;5.29;54.78;97655.84;1796469;78;21203;-74
2020/12/03 11:59:44;;;;;;;12.73;7.08;;;;;;;5.72;54.04;97652.02;1795003;79;21148;-74
2020/12/03 12:02:13;;;;;;;9.55;6.37;;;;;;;5.82;53.32;97643.11;1795324;80;21172;-74
2020/12/03 12:05:04;;;;;;;11.28;5.05;;;;;;;6.02;53.01;97627.75;1795330;79;21215;-72
2020/12/03 12:20:41;;;;;;;8.75;4.45;;;;;;;6.54;51.99;97633.36;1839273;77;23032;-70
2020/12/03 12:23:09;;;;;;;8.35;5.28;;;;;;;6.51;51.62;97631.04;1802118;79;21256;-70
2020/12/03 12:25:37;;;;;;;11.78;6.03;;;;;;;6.36;51.65;97632.29;1800826;80;21599;-68
2020/12/03 12:28:05;;;;;;;10.85;5.53;;;;;;;6.09;53.10;97631.94;1828981;78;21119;-70
2020/12/03 12:30:33;;;;;;;11.25;5.47;;;;;;;6.12;53.12;97631.22;1829640;78;21144;-70
2020/12/03 12:33:01;;;;;;;8.13;4.72;;;;;;;5.48;54.61;97637.21;1829747;78;21176;-70
2020/12/03 12:35:29;;;;;;;10.43;5.00;;;;;;;5.76;53.95;97644.90;1829691;78;21289;-70
2020/12/03 12:37:57;;;;;;;13.25;6.50;;;;;;;5.60;54.85;97643.98;1829672;77;21205;-74
2020/12/03 12:40:25;;;;;;;16.42;5.35;;;;;;;5.09;56.76;97638.05;1829725;77;21159;-73
2020/12/03 12:42:53;;;;;;;9.93;6.20;;;;;;;5.85;54.76;97623.54;1829508;78;21151;-70
2020/12/03 12:45:21;;;;;;;8.00;4.37;;;;;;;5.81;54.26;97613.13;1829451;78;21151;-70
2020/12/03 12:47:50;;;;;;;10.03;4.65;;;;;;;5.84;54.32;97614.16;1829454;77;21163;-69
2020/12/03 12:50:18;;;;;;;19.80;7.33;;;;;;;6.38;52.92;97615.41;1835131;77;21584;-70
2020/12/03 12:52:46;;;;;;;11.43;5.35;;;;;;;5.79;55.07;97621.46;1828953;78;21567;-70
2020/12/03 12:55:14;;;;;;;11.15;5.12;;;;;;;6.37;53.76;97613.77;1795408;80;21155;-70
2020/12/03 12:57:43;;;;;;;6.35;4.58;;;;;;;6.96;52.41;97604.49;1828955;77;21143;-70
2020/12/03 13:00:11;;;;;;;8.65;4.92;;;;;;;7.06;51.71;97601.47;1794740;80;21166;-70
2020/12/03 13:02:39;;;;;;;11.20;5.45;;;;;;;7.44;51.42;97593.03;1828915;77;21135;-70